sensor_id;sensor_type;location;lat;lon;timestamp;P1;P2;P0
47982;PMS5003;33751;50.816;-1.214;2022-09-09T00:01:59;1;1;
47982;PMS5003;33751;50.816;-1.214;2022-09-09T00:04:31;1;1;
47982;PMS5003;33751;50.816;-1.214;2022-09-09T00:07:01;1;1;
47982;PMS5003;33751;50.816;-1.214;2022-09-09T00:09:34;2;2;
47982;PMS5003;33751;50.816;-1.214;2022-09-09T00:12:10;1;1;
47982;PMS5003;33751;50.816;-1.214;2022-09-09T00:14:41;1;1;
47982;PMS5003;33751;50.816;-1.214;2022-09-09T00:17:17;0;0;
47982;PMS5003;33751;50.816;-1.214;2022-09-09T00:19:56;1;1;
47982;PMS5003;33751;50.816;-1.214;2022-09-09T00:22:28;0;0;
47982;PMS5003;33751;50.816;-1.214;2022-09-09T00:24:57;1;1;
47982;PMS5003;33751;50.816;-1.214;2022-09-09T00:27:36;2;2;
47982;PMS5003;33751;50.816;-1.214;2022-09-09T00:30:13;1;1;
47982;PMS5003;33751;50.816;-1.214;2022-09-09T00:32:43;1;1;
47982;PMS5003;33751;50.816;-1.214;2022-09-09T00:35:14;1;1;
47982;PMS5003;33751;50.816;-1.214;2022-09-09T00:37:44;2;2;
47982;PMS5003;33751;50.816;-1.214;2022-09-09T00:40:18;1;1;
47982;PMS5003;33751;50.816;-1.214;2022-09-09T00:42:52;2;2;
47982;PMS5003;33751;50.816;-1.214;2022-09-09T00:45:40;0;0;
47982;PMS5003;33751;50.816;-1.214;2022-09-09T00:48:24;1;1;
47982;PMS5003;33751;50.816;-1.214;2022-09-09T00:50:59;2;0;
47982;PMS5003;33751;50.816;-1.214;2022-09-09T00:53:33;1;0;
47982;PMS5003;33751;50.816;-1.214;2022-09-09T00:56:09;1;1;
47982;PMS5003;33751;50.816;-1.214;2022-09-09T00:58:40;5;3;
47982;PMS5003;33751;50.816;-1.214;2022-09-09T01:01:09;2;2;
47982;PMS5003;33751;50.816;-1.214;2022-09-09T01:03:38;2;2;
47982;PMS5003;33751;50.816;-1.214;2022-09-09T01:06:12;1;1;
47982;PMS5003;33751;50.816;-1.214;2022-09-09T01:08:48;2;2;
47982;PMS5003;33751;50.816;-1.214;2022-09-09T01:11:28;0;0;
47982;PMS5003;33751;50.816;-1.214;2022-09-09T01:14:05;6;5;
47982;PMS5003;33751;50.816;-1.214;2022-09-09T01:16:45;4;2;
47982;PMS5003;33751;50.816;-1.214;2022-09-09T01:19:15;2;2;
47982;PMS5003;33751;50.816;-1.214;2022-09-09T01:21:54;1;1;
47982;PMS5003;33751;50.816;-1.214;2022-09-09T01:24:29;3;3;
47982;PMS5003;33751;50.816;-1.214;2022-09-09T01:27:05;3;3;
47982;PMS5003;33751;50.816;-1.214;2022-09-09T01:29:34;1;1;
47982;PMS5003;33751;50.816;-1.214;2022-09-09T01:32:35;1;1;
47982;PMS5003;33751;50.816;-1.214;2022-09-09T01:35:06;2;2;
47982;PMS5003;33751;50.816;-1.214;2022-09-09T01:37:37;2;1;
47982;PMS5003;33751;50.816;-1.214;2022-09-09T01:40:05;3;3;
47982;PMS5003;33751;50.816;-1.214;2022-09-09T01:42:33;2;2;
47982;PMS5003;33751;50.816;-1.214;2022-09-09T01:45:00;4;4;
47982;PMS5003;33751;50.816;-1.214;2022-09-09T01:47:27;4;3;
47982;PMS5003;33751;50.816;-1.214;2022-09-09T01:49:53;2;2;
47982;PMS5003;33751;50.816;-1.214;2022-09-09T01:52:20;2;2;
47982;PMS5003;33751;50.816;-1.214;2022-09-09T01:54:47;3;1;
47982;PMS5003;33751;50.816;-1.214;2022-09-09T01:57:15;3;2;
47982;PMS5003;33751;50.816;-1.214;2022-09-09T01:59:51;1;1;
47982;PMS5003;33751;50.816;-1.214;2022-09-09T02:02:29;2;2;
47982;PMS5003;33751;50.816;-1.214;2022-09-09T02:05:01;2;2;
47982;PMS5003;33751;50.816;-1.214;2022-09-09T02:07:38;4;3;
47982;PMS5003;33751;50.816;-1.214;2022-09-09T02:10:09;3;3;
47982;PMS5003;33751;50.816;-1.214;2022-09-09T02:12:39;3;3;
47982;PMS5003;33751;50.816;-1.214;2022-09-09T02:15:12;0;0;
47982;PMS5003;33751;50.816;-1.214;2022-09-09T02:17:44;0;0;
47982;PMS5003;33751;50.816;-1.214;2022-09-09T02:20:15;2;2;
47982;PMS5003;33751;50.816;-1.214;2022-09-09T02:22:43;2;2;
47982;PMS5003;33751;50.816;-1.214;2022-09-09T02:25:14;3;2;
47982;PMS5003;33751;50.816;-1.214;2022-09-09T02:27:43;1;1;
47982;PMS5003;33751;50.816;-1.214;2022-09-09T02:30:13;2;2;
47982;PMS5003;33751;50.816;-1.214;2022-09-09T02:32:40;3;3;
47982;PMS5003;33751;50.816;-1.214;2022-09-09T02:35:09;1;1;
47982;PMS5003;33751;50.816;-1.214;2022-09-09T02:37:40;1;1;
47982;PMS5003;33751;50.816;-1.214;2022-09-09T02:40:10;3;2;
47982;PMS5003;33751;50.816;-1.214;2022-09-09T02:42:39;1;1;
47982;PMS5003;33751;50.816;-1.214;2022-09-09T02:45:06;2;2;
47982;PMS5003;33751;50.816;-1.214;2022-09-09T02:47:34;4;4;
47982;PMS5003;33751;50.816;-1.214;2022-09-09T02:50:08;3;3;
47982;PMS5003;33751;50.816;-1.214;2022-09-09T02:52:43;3;3;
47982;PMS5003;33751;50.816;-1.214;2022-09-09T02:55:21;2;2;
47982;PMS5003;33751;50.816;-1.214;2022-09-09T02:57:53;4;3;
47982;PMS5003;33751;50.816;-1.214;2022-09-09T03:00:23;4;4;
47982;PMS5003;33751;50.816;-1.214;2022-09-09T03:02:51;2;2;
47982;PMS5003;33751;50.816;-1.214;2022-09-09T03:05:19;4;3;
47982;PMS5003;33751;50.816;-1.214;2022-09-09T03:07:45;4;2;
47982;PMS5003;33751;50.816;-1.214;2022-09-09T03:10:13;4;2;
47982;PMS5003;33751;50.816;-1.214;2022-09-09T03:12:40;3;3;
47982;PMS5003;33751;50.816;-1.214;2022-09-09T03:15:07;5;3;
47982;PMS5003;33751;50.816;-1.214;2022-09-09T03:17:35;3;3;
47982;PMS5003;33751;50.816;-1.214;2022-09-09T03:20:02;2;2;
47982;PMS5003;33751;50.816;-1.214;2022-09-09T03:22:29;4;4;
47982;PMS5003;33751;50.816;-1.214;2022-09-09T03:24:56;4;3;
47982;PMS5003;33751;50.816;-1.214;2022-09-09T03:27:22;5;5;
47982;PMS5003;33751;50.816;-1.214;2022-09-09T03:29:48;4;2;
47982;PMS5003;33751;50.816;-1.214;2022-09-09T03:32:15;5;3;
47982;PMS5003;33751;50.816;-1.214;2022-09-09T03:34:42;2;2;
47982;PMS5003;33751;50.816;-1.214;2022-09-09T03:37:10;2;2;
47982;PMS5003;33751;50.816;-1.214;2022-09-09T03:39:37;1;1;
47982;PMS5003;33751;50.816;-1.214;2022-09-09T03:42:03;2;1;
47982;PMS5003;33751;50.816;-1.214;2022-09-09T03:44:30;3;3;
47982;PMS5003;33751;50.816;-1.214;2022-09-09T03:46:57;2;2;
47982;PMS5003;33751;50.816;-1.214;2022-09-09T03:49:24;2;2;
47982;PMS5003;33751;50.816;-1.214;2022-09-09T03:51:50;1;1;
47982;PMS5003;33751;50.816;-1.214;2022-09-09T03:54:17;2;1;
47982;PMS5003;33751;50.816;-1.214;2022-09-09T03:56:44;1;1;
47982;PMS5003;33751;50.816;-1.214;2022-09-09T03:59:10;1;1;
47982;PMS5003;33751;50.816;-1.214;2022-09-09T04:01:38;2;2;
47982;PMS5003;33751;50.816;-1.214;2022-09-09T04:04:04;1;1;
47982;PMS5003;33751;50.816;-1.214;2022-09-09T04:06:31;0;0;
47982;PMS5003;33751;50.816;-1.214;2022-09-09T04:08:57;1;1;
47982;PMS5003;33751;50.816;-1.214;2022-09-09T04:11:24;1;1;
47982;PMS5003;33751;50.816;-1.214;2022-09-09T04:13:50;1;1;
47982;PMS5003;33751;50.816;-1.214;2022-09-09T04:16:17;2;2;
47982;PMS5003;33751;50.816;-1.214;2022-09-09T04:18:44;1;1;
47982;PMS5003;33751;50.816;-1.214;2022-09-09T04:21:12;1;1;
47982;PMS5003;33751;50.816;-1.214;2022-09-09T04:23:39;1;1;
47982;PMS5003;33751;50.816;-1.214;2022-09-09T04:26:06;1;1;
47982;PMS5003;33751;50.816;-1.214;2022-09-09T04:28:35;1;0;
47982;PMS5003;33751;50.816;-1.214;2022-09-09T04:31:04;0;0;
47982;PMS5003;33751;50.816;-1.214;2022-09-09T04:33:32;0;0;
47982;PMS5003;33751;50.816;-1.214;2022-09-09T04:35:59;2;2;
47982;PMS5003;33751;50.816;-1.214;2022-09-09T04:38:26;4;2;
47982;PMS5003;33751;50.816;-1.214;2022-09-09T04:40:53;1;1;
47982;PMS5003;33751;50.816;-1.214;2022-09-09T04:43:20;1;1;
47982;PMS5003;33751;50.816;-1.214;2022-09-09T04:45:48;2;2;
47982;PMS5003;33751;50.816;-1.214;2022-09-09T04:48:16;0;0;
47982;PMS5003;33751;50.816;-1.214;2022-09-09T04:50:44;2;2;
47982;PMS5003;33751;50.816;-1.214;2022-09-09T04:53:20;3;2;
47982;PMS5003;33751;50.816;-1.214;2022-09-09T04:55:47;2;2;
47982;PMS5003;33751;50.816;-1.214;2022-09-09T04:58:15;3;2;
47982;PMS5003;33751;50.816;-1.214;2022-09-09T05:00:41;2;2;
47982;PMS5003;33751;50.816;-1.214;2022-09-09T05:03:08;3;3;
47982;PMS5003;33751;50.816;-1.214;2022-09-09T05:05:35;2;2;
47982;PMS5003;33751;50.816;-1.214;2022-09-09T05:08:03;3;2;
47982;PMS5003;33751;50.816;-1.214;2022-09-09T05:10:30;3;3;
47982;PMS5003;33751;50.816;-1.214;2022-09-09T05:12:58;4;2;
47982;PMS5003;33751;50.816;-1.214;2022-09-09T05:15:25;2;2;
47982;PMS5003;33751;50.816;-1.214;2022-09-09T05:17:52;3;3;
47982;PMS5003;33751;50.816;-1.214;2022-09-09T05:20:22;3;3;
47982;PMS5003;33751;50.816;-1.214;2022-09-09T05:22:52;2;2;
47982;PMS5003;33751;50.816;-1.214;2022-09-09T05:25:19;2;2;
47982;PMS5003;33751;50.816;-1.214;2022-09-09T05:27:46;4;3;
47982;PMS5003;33751;50.816;-1.214;2022-09-09T05:30:13;3;3;
47982;PMS5003;33751;50.816;-1.214;2022-09-09T05:32:40;2;2;
47982;PMS5003;33751;50.816;-1.214;2022-09-09T05:35:07;2;2;
47982;PMS5003;33751;50.816;-1.214;2022-09-09T05:37:34;2;2;
47982;PMS5003;33751;50.816;-1.214;2022-09-09T05:40:01;5;4;
47982;PMS5003;33751;50.816;-1.214;2022-09-09T05:42:29;2;2;
47982;PMS5003;33751;50.816;-1.214;2022-09-09T05:44:57;3;3;
47982;PMS5003;33751;50.816;-1.214;2022-09-09T05:47:24;2;2;
47982;PMS5003;33751;50.816;-1.214;2022-09-09T05:49:51;3;3;
47982;PMS5003;33751;50.816;-1.214;2022-09-09T05:52:17;4;4;
47982;PMS5003;33751;50.816;-1.214;2022-09-09T05:54:44;3;3;
47982;PMS5003;33751;50.816;-1.214;2022-09-09T05:57:11;4;4;
47982;PMS5003;33751;50.816;-1.214;2022-09-09T05:59:37;1;1;
47982;PMS5003;33751;50.816;-1.214;2022-09-09T06:02:04;3;3;
47982;PMS5003;33751;50.816;-1.214;2022-09-09T06:04:31;4;4;
47982;PMS5003;33751;50.816;-1.214;2022-09-09T06:06:57;4;4;
47982;PMS5003;33751;50.816;-1.214;2022-09-09T06:09:24;4;3;
47982;PMS5003;33751;50.816;-1.214;2022-09-09T06:11:51;12;6;
47982;PMS5003;33751;50.816;-1.214;2022-09-09T06:14:17;5;5;
47982;PMS5003;33751;50.816;-1.214;2022-09-09T06:16:44;4;4;
47982;PMS5003;33751;50.816;-1.214;2022-09-09T06:19:11;5;5;
47982;PMS5003;33751;50.816;-1.214;2022-09-09T06:21:38;4;4;
47982;PMS5003;33751;50.816;-1.214;2022-09-09T06:24:05;6;4;
47982;PMS5003;33751;50.816;-1.214;2022-09-09T06:26:33;5;5;
47982;PMS5003;33751;50.816;-1.214;2022-09-09T06:29:01;4;2;
47982;PMS5003;33751;50.816;-1.214;2022-09-09T06:31:30;7;6;
47982;PMS5003;33751;50.816;-1.214;2022-09-09T06:33:58;4;4;
47982;PMS5003;33751;50.816;-1.214;2022-09-09T06:36:26;4;4;
47982;PMS5003;33751;50.816;-1.214;2022-09-09T06:38:54;7;5;
47982;PMS5003;33751;50.816;-1.214;2022-09-09T06:41:22;6;5;
47982;PMS5003;33751;50.816;-1.214;2022-09-09T06:43:51;12;7;
47982;PMS5003;33751;50.816;-1.214;2022-09-09T06:46:18;13;7;
47982;PMS5003;33751;50.816;-1.214;2022-09-09T06:48:46;6;4;
47982;PMS5003;33751;50.816;-1.214;2022-09-09T06:51:15;7;7;
47982;PMS5003;33751;50.816;-1.214;2022-09-09T06:53:43;6;5;
47982;PMS5003;33751;50.816;-1.214;2022-09-09T06:56:21;8;6;
47982;PMS5003;33751;50.816;-1.214;2022-09-09T06:58:50;6;4;
47982;PMS5003;33751;50.816;-1.214;2022-09-09T07:01:18;6;4;
47982;PMS5003;33751;50.816;-1.214;2022-09-09T07:03:47;5;5;
47982;PMS5003;33751;50.816;-1.214;2022-09-09T07:06:16;6;6;
47982;PMS5003;33751;50.816;-1.214;2022-09-09T07:08:48;5;5;
47982;PMS5003;33751;50.816;-1.214;2022-09-09T07:11:16;4;4;
47982;PMS5003;33751;50.816;-1.214;2022-09-09T07:13:46;3;3;
47982;PMS5003;33751;50.816;-1.214;2022-09-09T07:16:15;4;4;
47982;PMS5003;33751;50.816;-1.214;2022-09-09T07:18:44;3;3;
47982;PMS5003;33751;50.816;-1.214;2022-09-09T07:21:11;5;3;
47982;PMS5003;33751;50.816;-1.214;2022-09-09T07:23:39;4;2;
47982;PMS5003;33751;50.816;-1.214;2022-09-09T07:26:08;6;5;
47982;PMS5003;33751;50.816;-1.214;2022-09-09T07:28:37;3;3;
47982;PMS5003;33751;50.816;-1.214;2022-09-09T07:31:05;2;2;
47982;PMS5003;33751;50.816;-1.214;2022-09-09T07:33:33;2;2;
47982;PMS5003;33751;50.816;-1.214;2022-09-09T07:36:03;3;1;
47982;PMS5003;33751;50.816;-1.214;2022-09-09T07:38:37;1;1;
47982;PMS5003;33751;50.816;-1.214;2022-09-09T07:41:05;9;3;
47982;PMS5003;33751;50.816;-1.214;2022-09-09T07:43:34;1;1;
47982;PMS5003;33751;50.816;-1.214;2022-09-09T07:46:01;6;1;
47982;PMS5003;33751;50.816;-1.214;2022-09-09T07:48:28;3;3;
47982;PMS5003;33751;50.816;-1.214;2022-09-09T07:51:04;2;2;
47982;PMS5003;33751;50.816;-1.214;2022-09-09T07:53:33;1;1;
47982;PMS5003;33751;50.816;-1.214;2022-09-09T07:56:04;3;1;
47982;PMS5003;33751;50.816;-1.214;2022-09-09T07:58:33;1;1;
47982;PMS5003;33751;50.816;-1.214;2022-09-09T08:01:00;1;1;
47982;PMS5003;33751;50.816;-1.214;2022-09-09T08:03:32;2;2;
47982;PMS5003;33751;50.816;-1.214;2022-09-09T08:06:00;2;2;
47982;PMS5003;33751;50.816;-1.214;2022-09-09T08:08:27;2;2;
47982;PMS5003;33751;50.816;-1.214;2022-09-09T08:11:00;1;1;
47982;PMS5003;33751;50.816;-1.214;2022-09-09T08:13:29;6;3;
47982;PMS5003;33751;50.816;-1.214;2022-09-09T08:15:55;2;2;
47982;PMS5003;33751;50.816;-1.214;2022-09-09T08:18:31;1;1;
47982;PMS5003;33751;50.816;-1.214;2022-09-09T08:21:04;1;1;
47982;PMS5003;33751;50.816;-1.214;2022-09-09T08:23:33;2;2;
47982;PMS5003;33751;50.816;-1.214;2022-09-09T08:26:03;1;1;
47982;PMS5003;33751;50.816;-1.214;2022-09-09T08:28:31;2;2;
47982;PMS5003;33751;50.816;-1.214;2022-09-09T08:31:04;1;1;
47982;PMS5003;33751;50.816;-1.214;2022-09-09T08:33:32;1;1;
47982;PMS5003;33751;50.816;-1.214;2022-09-09T08:35:59;1;0;
47982;PMS5003;33751;50.816;-1.214;2022-09-09T08:38:27;1;1;
47982;PMS5003;33751;50.816;-1.214;2022-09-09T08:40:55;1;1;
47982;PMS5003;33751;50.816;-1.214;2022-09-09T08:43:28;2;2;
47982;PMS5003;33751;50.816;-1.214;2022-09-09T08:45:58;2;2;
47982;PMS5003;33751;50.816;-1.214;2022-09-09T08:48:42;2;2;
47982;PMS5003;33751;50.816;-1.214;2022-09-09T08:51:18;1;1;
47982;PMS5003;33751;50.816;-1.214;2022-09-09T08:53:46;1;1;
47982;PMS5003;33751;50.816;-1.214;2022-09-09T08:56:18;2;2;
47982;PMS5003;33751;50.816;-1.214;2022-09-09T08:58:50;1;1;
47982;PMS5003;33751;50.816;-1.214;2022-09-09T09:01:24;0;0;
47982;PMS5003;33751;50.816;-1.214;2022-09-09T09:04:05;2;0;
47982;PMS5003;33751;50.816;-1.214;2022-09-09T09:06:44;0;0;
47982;PMS5003;33751;50.816;-1.214;2022-09-09T09:09:21;2;0;
47982;PMS5003;33751;50.816;-1.214;2022-09-09T09:11:57;0;0;
47982;PMS5003;33751;50.816;-1.214;2022-09-09T09:14:26;1;1;
47982;PMS5003;33751;50.816;-1.214;2022-09-09T09:16:56;0;0;
47982;PMS5003;33751;50.816;-1.214;2022-09-09T09:19:26;0;0;
47982;PMS5003;33751;50.816;-1.214;2022-09-09T09:21:57;4;2;
47982;PMS5003;33751;50.816;-1.214;2022-09-09T09:24:33;0;0;
47982;PMS5003;33751;50.816;-1.214;2022-09-09T09:27:10;1;1;
47982;PMS5003;33751;50.816;-1.214;2022-09-09T09:29:39;0;0;
47982;PMS5003;33751;50.816;-1.214;2022-09-09T09:32:07;1;1;
47982;PMS5003;33751;50.816;-1.214;2022-09-09T09:34:39;1;1;
47982;PMS5003;33751;50.816;-1.214;2022-09-09T09:37:07;2;1;
47982;PMS5003;33751;50.816;-1.214;2022-09-09T09:39:42;0;0;
47982;PMS5003;33751;50.816;-1.214;2022-09-09T09:42:10;2;2;
47982;PMS5003;33751;50.816;-1.214;2022-09-09T09:44:39;1;1;
47982;PMS5003;33751;50.816;-1.214;2022-09-09T09:47:07;0;0;
47982;PMS5003;33751;50.816;-1.214;2022-09-09T09:49:37;1;1;
47982;PMS5003;33751;50.816;-1.214;2022-09-09T09:52:04;1;1;
47982;PMS5003;33751;50.816;-1.214;2022-09-09T09:54:33;0;0;
47982;PMS5003;33751;50.816;-1.214;2022-09-09T09:57:11;1;0;
47982;PMS5003;33751;50.816;-1.214;2022-09-09T09:59:40;0;0;
47982;PMS5003;33751;50.816;-1.214;2022-09-09T10:02:16;2;1;
47982;PMS5003;33751;50.816;-1.214;2022-09-09T10:04:45;1;1;
47982;PMS5003;33751;50.816;-1.214;2022-09-09T10:07:12;0;0;
47982;PMS5003;33751;50.816;-1.214;2022-09-09T10:09:44;0;0;
47982;PMS5003;33751;50.816;-1.214;2022-09-09T10:12:15;0;0;
47982;PMS5003;33751;50.816;-1.214;2022-09-09T10:14:52;0;0;
47982;PMS5003;33751;50.816;-1.214;2022-09-09T10:17:29;1;1;
47982;PMS5003;33751;50.816;-1.214;2022-09-09T10:20:13;2;1;
47982;PMS5003;33751;50.816;-1.214;2022-09-09T10:22:47;0;0;
47982;PMS5003;33751;50.816;-1.214;2022-09-09T10:25:21;2;2;
47982;PMS5003;33751;50.816;-1.214;2022-09-09T10:28:03;1;1;
47982;PMS5003;33751;50.816;-1.214;2022-09-09T10:30:47;1;1;
47982;PMS5003;33751;50.816;-1.214;2022-09-09T10:33:26;0;0;
47982;PMS5003;33751;50.816;-1.214;2022-09-09T10:36:03;0;0;
47982;PMS5003;33751;50.816;-1.214;2022-09-09T10:38:40;1;1;
47982;PMS5003;33751;50.816;-1.214;2022-09-09T10:41:13;1;1;
47982;PMS5003;33751;50.816;-1.214;2022-09-09T10:43:49;2;1;
47982;PMS5003;33751;50.816;-1.214;2022-09-09T10:46:28;0;0;
47982;PMS5003;33751;50.816;-1.214;2022-09-09T10:49:06;1;1;
47982;PMS5003;33751;50.816;-1.214;2022-09-09T10:51:45;0;0;
47982;PMS5003;33751;50.816;-1.214;2022-09-09T10:54:25;0;0;
47982;PMS5003;33751;50.816;-1.214;2022-09-09T10:57:03;0;0;
47982;PMS5003;33751;50.816;-1.214;2022-09-09T10:59:35;0;0;
47982;PMS5003;33751;50.816;-1.214;2022-09-09T11:02:10;0;0;
47982;PMS5003;33751;50.816;-1.214;2022-09-09T11:04:43;2;0;
47982;PMS5003;33751;50.816;-1.214;2022-09-09T11:07:16;0;0;
47982;PMS5003;33751;50.816;-1.214;2022-09-09T11:09:53;1;1;
47982;PMS5003;33751;50.816;-1.214;2022-09-09T11:12:25;2;1;
47982;PMS5003;33751;50.816;-1.214;2022-09-09T11:14:55;0;0;
47982;PMS5003;33751;50.816;-1.214;2022-09-09T11:17:30;2;2;
47982;PMS5003;33751;50.816;-1.214;2022-09-09T11:20:11;0;0;
47982;PMS5003;33751;50.816;-1.214;2022-09-09T11:22:40;2;1;
47982;PMS5003;33751;50.816;-1.214;2022-09-09T11:25:15;0;0;
47982;PMS5003;33751;50.816;-1.214;2022-09-09T11:27:51;1;1;
47982;PMS5003;33751;50.816;-1.214;2022-09-09T11:30:30;2;1;
47982;PMS5003;33751;50.816;-1.214;2022-09-09T11:33:09;1;1;
47982;PMS5003;33751;50.816;-1.214;2022-09-09T11:35:57;0;0;
47982;PMS5003;33751;50.816;-1.214;2022-09-09T11:38:39;1;1;
47982;PMS5003;33751;50.816;-1.214;2022-09-09T11:41:11;0;0;
47982;PMS5003;33751;50.816;-1.214;2022-09-09T11:43:39;2;2;
47982;PMS5003;33751;50.816;-1.214;2022-09-09T11:46:08;3;2;
47982;PMS5003;33751;50.816;-1.214;2022-09-09T11:48:37;0;0;
47982;PMS5003;33751;50.816;-1.214;2022-09-09T11:51:06;2;2;
47982;PMS5003;33751;50.816;-1.214;2022-09-09T11:53:34;1;1;
47982;PMS5003;33751;50.816;-1.214;2022-09-09T11:56:03;0;0;
47982;PMS5003;33751;50.816;-1.214;2022-09-09T11:58:38;0;0;
47982;PMS5003;33751;50.816;-1.214;2022-09-09T12:01:16;1;1;
47982;PMS5003;33751;50.816;-1.214;2022-09-09T12:03:56;1;1;
47982;PMS5003;33751;50.816;-1.214;2022-09-09T12:06:41;1;1;
47982;PMS5003;33751;50.816;-1.214;2022-09-09T12:09:13;1;1;
47982;PMS5003;33751;50.816;-1.214;2022-09-09T12:11:46;1;1;
47982;PMS5003;33751;50.816;-1.214;2022-09-09T12:14:19;0;0;
47982;PMS5003;33751;50.816;-1.214;2022-09-09T12:16:48;0;0;
47982;PMS5003;33751;50.816;-1.214;2022-09-09T12:19:17;0;0;
47982;PMS5003;33751;50.816;-1.214;2022-09-09T12:21:50;1;1;
47982;PMS5003;33751;50.816;-1.214;2022-09-09T12:24:27;0;0;
47982;PMS5003;33751;50.816;-1.214;2022-09-09T12:27:00;1;1;
47982;PMS5003;33751;50.816;-1.214;2022-09-09T12:29:36;1;1;
47982;PMS5003;33751;50.816;-1.214;2022-09-09T12:32:15;1;1;
47982;PMS5003;33751;50.816;-1.214;2022-09-09T12:34:44;1;1;
47982;PMS5003;33751;50.816;-1.214;2022-09-09T12:37:17;3;3;
47982;PMS5003;33751;50.816;-1.214;2022-09-09T12:39:53;5;1;
47982;PMS5003;33751;50.816;-1.214;2022-09-09T12:42:22;0;0;
47982;PMS5003;33751;50.816;-1.214;2022-09-09T12:44:51;1;1;
47982;PMS5003;33751;50.816;-1.214;2022-09-09T12:47:20;0;0;
47982;PMS5003;33751;50.816;-1.214;2022-09-09T12:49:52;0;0;
47982;PMS5003;33751;50.816;-1.214;2022-09-09T12:52:20;2;1;
47982;PMS5003;33751;50.816;-1.214;2022-09-09T12:54:52;0;0;
47982;PMS5003;33751;50.816;-1.214;2022-09-09T12:57:21;0;0;
47982;PMS5003;33751;50.816;-1.214;2022-09-09T12:59:51;2;2;
47982;PMS5003;33751;50.816;-1.214;2022-09-09T13:02:19;0;0;
47982;PMS5003;33751;50.816;-1.214;2022-09-09T13:04:48;0;0;
47982;PMS5003;33751;50.816;-1.214;2022-09-09T13:07:15;1;1;
47982;PMS5003;33751;50.816;-1.214;2022-09-09T13:09:44;1;1;
47982;PMS5003;33751;50.816;-1.214;2022-09-09T13:12:13;0;0;
47982;PMS5003;33751;50.816;-1.214;2022-09-09T13:14:43;0;0;
47982;PMS5003;33751;50.816;-1.214;2022-09-09T13:17:19;0;0;
47982;PMS5003;33751;50.816;-1.214;2022-09-09T13:19:48;1;0;
47982;PMS5003;33751;50.816;-1.214;2022-09-09T13:22:19;0;0;
47982;PMS5003;33751;50.816;-1.214;2022-09-09T13:24:58;0;0;
47982;PMS5003;33751;50.816;-1.214;2022-09-09T13:27:28;1;1;
47982;PMS5003;33751;50.816;-1.214;2022-09-09T13:29:56;0;0;
47982;PMS5003;33751;50.816;-1.214;2022-09-09T13:32:23;1;0;
47982;PMS5003;33751;50.816;-1.214;2022-09-09T13:34:52;0;0;
47982;PMS5003;33751;50.816;-1.214;2022-09-09T13:37:20;1;1;
47982;PMS5003;33751;50.816;-1.214;2022-09-09T13:39:51;1;1;
47982;PMS5003;33751;50.816;-1.214;2022-09-09T13:42:23;3;2;
47982;PMS5003;33751;50.816;-1.214;2022-09-09T13:44:52;0;0;
47982;PMS5003;33751;50.816;-1.214;2022-09-09T13:47:21;1;1;
47982;PMS5003;33751;50.816;-1.214;2022-09-09T13:49:53;2;2;
47982;PMS5003;33751;50.816;-1.214;2022-09-09T13:52:20;1;1;
47982;PMS5003;33751;50.816;-1.214;2022-09-09T13:54:48;0;0;
47982;PMS5003;33751;50.816;-1.214;2022-09-09T13:57:16;1;1;
47982;PMS5003;33751;50.816;-1.214;2022-09-09T13:59:44;0;0;
47982;PMS5003;33751;50.816;-1.214;2022-09-09T14:02:11;0;0;
47982;PMS5003;33751;50.816;-1.214;2022-09-09T14:04:38;1;1;
47982;PMS5003;33751;50.816;-1.214;2022-09-09T14:07:05;0;0;
47982;PMS5003;33751;50.816;-1.214;2022-09-09T14:09:36;1;1;
47982;PMS5003;33751;50.816;-1.214;2022-09-09T14:12:03;1;1;
47982;PMS5003;33751;50.816;-1.214;2022-09-09T14:14:31;0;0;
47982;PMS5003;33751;50.816;-1.214;2022-09-09T14:16:58;1;1;
47982;PMS5003;33751;50.816;-1.214;2022-09-09T14:19:25;1;1;
47982;PMS5003;33751;50.816;-1.214;2022-09-09T14:21:52;1;1;
47982;PMS5003;33751;50.816;-1.214;2022-09-09T14:24:19;0;0;
47982;PMS5003;33751;50.816;-1.214;2022-09-09T14:26:46;1;1;
47982;PMS5003;33751;50.816;-1.214;2022-09-09T14:29:13;0;0;
47982;PMS5003;33751;50.816;-1.214;2022-09-09T14:31:39;1;1;
47982;PMS5003;33751;50.816;-1.214;2022-09-09T14:34:06;0;0;
47982;PMS5003;33751;50.816;-1.214;2022-09-09T14:36:34;0;0;
47982;PMS5003;33751;50.816;-1.214;2022-09-09T14:39:01;0;0;
47982;PMS5003;33751;50.816;-1.214;2022-09-09T14:41:28;0;0;
47982;PMS5003;33751;50.816;-1.214;2022-09-09T14:43:56;0;0;
47982;PMS5003;33751;50.816;-1.214;2022-09-09T14:46:23;0;0;
47982;PMS5003;33751;50.816;-1.214;2022-09-09T14:48:50;1;1;
47982;PMS5003;33751;50.816;-1.214;2022-09-09T14:51:18;1;1;
47982;PMS5003;33751;50.816;-1.214;2022-09-09T14:53:47;0;0;
47982;PMS5003;33751;50.816;-1.214;2022-09-09T14:56:15;0;0;
47982;PMS5003;33751;50.816;-1.214;2022-09-09T14:58:43;0;0;
47982;PMS5003;33751;50.816;-1.214;2022-09-09T15:01:12;1;1;
47982;PMS5003;33751;50.816;-1.214;2022-09-09T15:03:41;1;1;
47982;PMS5003;33751;50.816;-1.214;2022-09-09T15:06:10;2;1;
47982;PMS5003;33751;50.816;-1.214;2022-09-09T15:08:40;0;0;
47982;PMS5003;33751;50.816;-1.214;2022-09-09T15:11:09;1;1;
47982;PMS5003;33751;50.816;-1.214;2022-09-09T15:13:38;2;0;
47982;PMS5003;33751;50.816;-1.214;2022-09-09T15:16:07;3;1;
47982;PMS5003;33751;50.816;-1.214;2022-09-09T15:18:36;2;2;
47982;PMS5003;33751;50.816;-1.214;2022-09-09T15:21:03;1;1;
47982;PMS5003;33751;50.816;-1.214;2022-09-09T15:23:31;4;2;
47982;PMS5003;33751;50.816;-1.214;2022-09-09T15:25:58;2;2;
47982;PMS5003;33751;50.816;-1.214;2022-09-09T15:28:25;0;0;
47982;PMS5003;33751;50.816;-1.214;2022-09-09T15:30:53;0;0;
47982;PMS5003;33751;50.816;-1.214;2022-09-09T15:33:21;2;1;
47982;PMS5003;33751;50.816;-1.214;2022-09-09T15:35:48;1;1;
47982;PMS5003;33751;50.816;-1.214;2022-09-09T15:38:16;1;1;
47982;PMS5003;33751;50.816;-1.214;2022-09-09T15:40:43;1;1;
47982;PMS5003;33751;50.816;-1.214;2022-09-09T15:43:10;0;0;
47982;PMS5003;33751;50.816;-1.214;2022-09-09T15:45:37;0;0;
47982;PMS5003;33751;50.816;-1.214;2022-09-09T15:48:03;2;2;
47982;PMS5003;33751;50.816;-1.214;2022-09-09T15:50:31;1;1;
47982;PMS5003;33751;50.816;-1.214;2022-09-09T15:52:57;1;1;
47982;PMS5003;33751;50.816;-1.214;2022-09-09T15:55:24;0;0;
47982;PMS5003;33751;50.816;-1.214;2022-09-09T15:57:52;0;0;
47982;PMS5003;33751;50.816;-1.214;2022-09-09T16:00:18;1;1;
47982;PMS5003;33751;50.816;-1.214;2022-09-09T16:02:46;2;2;
47982;PMS5003;33751;50.816;-1.214;2022-09-09T16:05:13;2;1;
47982;PMS5003;33751;50.816;-1.214;2022-09-09T16:07:40;4;1;
47982;PMS5003;33751;50.816;-1.214;2022-09-09T16:10:07;2;1;
47982;PMS5003;33751;50.816;-1.214;2022-09-09T16:12:34;1;1;
47982;PMS5003;33751;50.816;-1.214;2022-09-09T16:15:02;1;1;
47982;PMS5003;33751;50.816;-1.214;2022-09-09T16:17:29;1;1;
47982;PMS5003;33751;50.816;-1.214;2022-09-09T16:19:55;1;1;
47982;PMS5003;33751;50.816;-1.214;2022-09-09T16:22:22;1;1;
47982;PMS5003;33751;50.816;-1.214;2022-09-09T16:24:48;1;1;
47982;PMS5003;33751;50.816;-1.214;2022-09-09T16:27:15;0;0;
47982;PMS5003;33751;50.816;-1.214;2022-09-09T16:29:41;1;1;
47982;PMS5003;33751;50.816;-1.214;2022-09-09T16:32:08;1;1;
47982;PMS5003;33751;50.816;-1.214;2022-09-09T16:34:35;1;1;
47982;PMS5003;33751;50.816;-1.214;2022-09-09T16:37:02;1;1;
47982;PMS5003;33751;50.816;-1.214;2022-09-09T16:39:29;1;1;
47982;PMS5003;33751;50.816;-1.214;2022-09-09T16:41:56;1;1;
47982;PMS5003;33751;50.816;-1.214;2022-09-09T16:44:22;2;1;
47982;PMS5003;33751;50.816;-1.214;2022-09-09T16:46:49;1;1;
47982;PMS5003;33751;50.816;-1.214;2022-09-09T16:49:15;1;1;
47982;PMS5003;33751;50.816;-1.214;2022-09-09T16:51:43;1;1;
47982;PMS5003;33751;50.816;-1.214;2022-09-09T16:54:12;3;3;